sensor_id;sensor_type;location;lat;lon;timestamp;temperature;humidity
58529;DHT22;44322;52.968;5.816;2022-09-28T00:02:07;9.50;99.90
58529;DHT22;44322;52.968;5.816;2022-09-28T00:04:33;9.50;99.90
58529;DHT22;44322;52.968;5.816;2022-09-28T00:07:00;9.40;99.90
58529;DHT22;44322;52.968;5.816;2022-09-28T00:09:26;9.40;99.90
58529;DHT22;44322;52.968;5.816;2022-09-28T00:11:52;9.40;99.90
58529;DHT22;44322;52.968;5.816;2022-09-28T00:14:22;9.40;99.90
58529;DHT22;44322;52.968;5.816;2022-09-28T00:16:49;9.40;99.90
58529;DHT22;44322;52.968;5.816;2022-09-28T00:19:15;9.30;99.90
58529;DHT22;44322;52.968;5.816;2022-09-28T00:21:41;9.30;99.90
58529;DHT22;44322;52.968;5.816;2022-09-28T00:24:11;9.30;99.90
58529;DHT22;44322;52.968;5.816;2022-09-28T00:29:18;9.30;99.90
58529;DHT22;44322;52.968;5.816;2022-09-28T00:31:44;9.30;99.90
58529;DHT22;44322;52.968;5.816;2022-09-28T00:34:11;9.30;99.90
58529;DHT22;44322;52.968;5.816;2022-09-28T00:36:37;9.30;99.90
58529;DHT22;44322;52.968;5.816;2022-09-28T00:39:05;9.20;99.90
58529;DHT22;44322;52.968;5.816;2022-09-28T00:41:34;9.20;99.90
58529;DHT22;44322;52.968;5.816;2022-09-28T00:49:49;9.20;99.90
58529;DHT22;44322;52.968;5.816;2022-09-28T00:52:27;9.20;99.90
58529;DHT22;44322;52.968;5.816;2022-09-28T00:54:55;9.20;99.90
58529;DHT22;44322;52.968;5.816;2022-09-28T00:57:22;9.20;99.90
58529;DHT22;44322;52.968;5.816;2022-09-28T00:59:49;9.20;99.90
58529;DHT22;44322;52.968;5.816;2022-09-28T01:02:15;9.20;99.90
58529;DHT22;44322;52.968;5.816;2022-09-28T01:04:41;9.20;99.90
58529;DHT22;44322;52.968;5.816;2022-09-28T01:07:08;9.20;99.90
58529;DHT22;44322;52.968;5.816;2022-09-28T01:09:37;9.20;99.90
58529;DHT22;44322;52.968;5.816;2022-09-28T01:12:03;9.10;99.90
58529;DHT22;44322;52.968;5.816;2022-09-28T01:14:29;9.10;99.90
58529;DHT22;44322;52.968;5.816;2022-09-28T01:22:40;9.10;99.90
58529;DHT22;44322;52.968;5.816;2022-09-28T01:25:18;9.10;99.90
58529;DHT22;44322;52.968;5.816;2022-09-28T01:28:14;9.10;99.90
58529;DHT22;44322;52.968;5.816;2022-09-28T01:30:46;9.10;99.90
58529;DHT22;44322;52.968;5.816;2022-09-28T01:33:20;9.00;99.90
58529;DHT22;44322;52.968;5.816;2022-09-28T01:35:56;9.00;99.90
58529;DHT22;44322;52.968;5.816;2022-09-28T01:38:37;9.00;99.90
58529;DHT22;44322;52.968;5.816;2022-09-28T01:41:06;9.00;99.90
58529;DHT22;44322;52.968;5.816;2022-09-28T01:43:37;9.00;99.90
58529;DHT22;44322;52.968;5.816;2022-09-28T01:46:15;8.90;99.90
58529;DHT22;44322;52.968;5.816;2022-09-28T01:49:07;8.90;99.90
58529;DHT22;44322;52.968;5.816;2022-09-28T01:51:41;8.90;99.90
58529;DHT22;44322;52.968;5.816;2022-09-28T01:54:19;8.90;99.90
58529;DHT22;44322;52.968;5.816;2022-09-28T01:56:51;8.90;99.90
58529;DHT22;44322;52.968;5.816;2022-09-28T01:59:22;8.90;99.90
58529;DHT22;44322;52.968;5.816;2022-09-28T02:02:14;8.80;99.90
58529;DHT22;44322;52.968;5.816;2022-09-28T02:04:50;8.90;99.90
58529;DHT22;44322;52.968;5.816;2022-09-28T02:07:41;8.80;99.90
58529;DHT22;44322;52.968;5.816;2022-09-28T02:10:17;8.80;99.90
58529;DHT22;44322;52.968;5.816;2022-09-28T02:12:51;8.80;99.90
58529;DHT22;44322;52.968;5.816;2022-09-28T02:15:22;8.80;99.90
58529;DHT22;44322;52.968;5.816;2022-09-28T02:17:50;8.80;99.90
58529;DHT22;44322;52.968;5.816;2022-09-28T02:20:16;8.80;99.90
58529;DHT22;44322;52.968;5.816;2022-09-28T02:22:46;8.80;99.90
58529;DHT22;44322;52.968;5.816;2022-09-28T02:25:26;8.80;99.90
58529;DHT22;44322;52.968;5.816;2022-09-28T02:35:59;8.80;99.90
58529;DHT22;44322;52.968;5.816;2022-09-28T02:52:48;8.80;99.90
58529;DHT22;44322;52.968;5.816;2022-09-28T03:11:55;8.80;99.90
58529;DHT22;44322;52.968;5.816;2022-09-28T03:14:28;8.80;99.90
58529;DHT22;44322;52.968;5.816;2022-09-28T03:16:59;8.80;99.90
58529;DHT22;44322;52.968;5.816;2022-09-28T03:19:33;8.80;99.90
58529;DHT22;44322;52.968;5.816;2022-09-28T03:22:13;8.80;99.90
58529;DHT22;44322;52.968;5.816;2022-09-28T03:25:33;8.90;99.90
58529;DHT22;44322;52.968;5.816;2022-09-28T03:28:25;8.90;99.90
58529;DHT22;44322;52.968;5.816;2022-09-28T03:31:05;8.80;99.90
58529;DHT22;44322;52.968;5.816;2022-09-28T03:33:49;8.80;99.90
58529;DHT22;44322;52.968;5.816;2022-09-28T03:36:22;8.80;99.90
58529;DHT22;44322;52.968;5.816;2022-09-28T03:39:20;8.90;99.90
58529;DHT22;44322;52.968;5.816;2022-09-28T03:41:59;8.90;99.90
58529;DHT22;44322;52.968;5.816;2022-09-28T03:44:35;8.90;99.90
58529;DHT22;44322;52.968;5.816;2022-09-28T03:47:11;8.90;99.90
58529;DHT22;44322;52.968;5.816;2022-09-28T03:50:03;8.90;99.90
58529;DHT22;44322;52.968;5.816;2022-09-28T03:58:49;8.90;99.90
58529;DHT22;44322;52.968;5.816;2022-09-28T04:01:15;8.90;99.90
58529;DHT22;44322;52.968;5.816;2022-09-28T04:03:41;8.90;99.90
58529;DHT22;44322;52.968;5.816;2022-09-28T04:06:07;8.90;99.90
58529;DHT22;44322;52.968;5.816;2022-09-28T04:08:34;8.90;99.90
58529;DHT22;44322;52.968;5.816;2022-09-28T04:11:00;8.90;99.90
58529;DHT22;44322;52.968;5.816;2022-09-28T04:13:28;8.90;99.90
58529;DHT22;44322;52.968;5.816;2022-09-28T04:15:55;8.90;99.90
58529;DHT22;44322;52.968;5.816;2022-09-28T04:18:23;8.90;99.90
58529;DHT22;44322;52.968;5.816;2022-09-28T04:21:12;8.90;99.90
58529;DHT22;44322;52.968;5.816;2022-09-28T04:23:47;8.90;99.90
58529;DHT22;44322;52.968;5.816;2022-09-28T04:26:25;8.90;99.90
58529;DHT22;44322;52.968;5.816;2022-09-28T04:28:51;8.90;99.90
58529;DHT22;44322;52.968;5.816;2022-09-28T04:31:58;8.90;99.90
58529;DHT22;44322;52.968;5.816;2022-09-28T04:34:32;8.90;99.90
58529;DHT22;44322;52.968;5.816;2022-09-28T04:36:58;8.90;99.90
58529;DHT22;44322;52.968;5.816;2022-09-28T04:39:23;8.90;99.90
58529;DHT22;44322;52.968;5.816;2022-09-28T04:41:52;8.90;99.90
58529;DHT22;44322;52.968;5.816;2022-09-28T04:44:18;8.90;99.90
58529;DHT22;44322;52.968;5.816;2022-09-28T04:46:46;8.90;99.90
58529;DHT22;44322;52.968;5.816;2022-09-28T04:49:32;8.90;99.90
58529;DHT22;44322;52.968;5.816;2022-09-28T04:52:26;8.90;99.90
58529;DHT22;44322;52.968;5.816;2022-09-28T04:54:52;8.90;99.90
58529;DHT22;44322;52.968;5.816;2022-09-28T04:57:17;8.90;99.90
58529;DHT22;44322;52.968;5.816;2022-09-28T04:59:43;8.90;99.90
58529;DHT22;44322;52.968;5.816;2022-09-28T05:02:09;8.90;99.90
58529;DHT22;44322;52.968;5.816;2022-09-28T05:04:59;8.90;99.90
58529;DHT22;44322;52.968;5.816;2022-09-28T05:07:45;8.90;99.90
58529;DHT22;44322;52.968;5.816;2022-09-28T05:10:12;8.90;99.90
58529;DHT22;44322;52.968;5.816;2022-09-28T05:12:38;8.90;99.90
58529;DHT22;44322;52.968;5.816;2022-09-28T05:15:05;8.90;99.90
58529;DHT22;44322;52.968;5.816;2022-09-28T05:17:30;8.90;99.90
58529;DHT22;44322;52.968;5.816;2022-09-28T05:20:09;8.90;99.90
58529;DHT22;44322;52.968;5.816;2022-09-28T05:22:35;8.90;99.90
58529;DHT22;44322;52.968;5.816;2022-09-28T05:25:01;8.80;99.90
58529;DHT22;44322;52.968;5.816;2022-09-28T05:27:32;8.80;99.90
58529;DHT22;44322;52.968;5.816;2022-09-28T05:30:07;8.80;99.90
58529;DHT22;44322;52.968;5.816;2022-09-28T05:32:59;8.80;99.90
58529;DHT22;44322;52.968;5.816;2022-09-28T05:35:29;8.80;99.90
58529;DHT22;44322;52.968;5.816;2022-09-28T05:37:57;8.80;99.90
58529;DHT22;44322;52.968;5.816;2022-09-28T05:40:27;8.70;99.90
58529;DHT22;44322;52.968;5.816;2022-09-28T05:42:53;8.70;99.90
58529;DHT22;44322;52.968;5.816;2022-09-28T05:45:22;8.70;99.90
58529;DHT22;44322;52.968;5.816;2022-09-28T05:47:49;8.70;99.90
58529;DHT22;44322;52.968;5.816;2022-09-28T05:50:18;8.60;99.90
58529;DHT22;44322;52.968;5.816;2022-09-28T05:52:45;8.60;99.90
58529;DHT22;44322;52.968;5.816;2022-09-28T05:55:12;8.60;99.90
58529;DHT22;44322;52.968;5.816;2022-09-28T05:57:40;8.60;99.90
58529;DHT22;44322;52.968;5.816;2022-09-28T06:00:07;8.50;99.90
58529;DHT22;44322;52.968;5.816;2022-09-28T06:02:38;8.50;99.90
58529;DHT22;44322;52.968;5.816;2022-09-28T06:05:05;8.50;99.90
58529;DHT22;44322;52.968;5.816;2022-09-28T06:07:32;8.50;99.90
58529;DHT22;44322;52.968;5.816;2022-09-28T06:10:00;8.40;99.90
58529;DHT22;44322;52.968;5.816;2022-09-28T06:12:39;8.40;99.90
58529;DHT22;44322;52.968;5.816;2022-09-28T06:15:11;8.40;99.90
58529;DHT22;44322;52.968;5.816;2022-09-28T06:17:37;8.40;99.90
58529;DHT22;44322;52.968;5.816;2022-09-28T06:20:43;8.40;99.90
58529;DHT22;44322;52.968;5.816;2022-09-28T06:23:15;8.40;99.90
58529;DHT22;44322;52.968;5.816;2022-09-28T06:25:42;8.40;99.90
58529;DHT22;44322;52.968;5.816;2022-09-28T06:28:10;8.40;99.90
58529;DHT22;44322;52.968;5.816;2022-09-28T06:30:36;8.40;99.90
58529;DHT22;44322;52.968;5.816;2022-09-28T06:33:10;8.40;99.90
58529;DHT22;44322;52.968;5.816;2022-09-28T06:35:38;8.40;99.90
58529;DHT22;44322;52.968;5.816;2022-09-28T06:38:04;8.40;99.90
58529;DHT22;44322;52.968;5.816;2022-09-28T06:40:32;8.40;99.90
58529;DHT22;44322;52.968;5.816;2022-09-28T06:43:00;8.50;99.90
58529;DHT22;44322;52.968;5.816;2022-09-28T06:45:50;8.50;99.90
58529;DHT22;44322;52.968;5.816;2022-09-28T06:48:31;8.50;99.90
58529;DHT22;44322;52.968;5.816;2022-09-28T06:51:00;8.50;99.90
58529;DHT22;44322;52.968;5.816;2022-09-28T06:53:28;8.50;99.90
58529;DHT22;44322;52.968;5.816;2022-09-28T06:55:57;8.60;99.90
58529;DHT22;44322;52.968;5.816;2022-09-28T06:58:28;8.60;99.90
58529;DHT22;44322;52.968;5.816;2022-09-28T07:00:56;8.60;99.90
58529;DHT22;44322;52.968;5.816;2022-09-28T07:03:25;8.70;99.90
58529;DHT22;44322;52.968;5.816;2022-09-28T07:06:10;8.70;99.90
58529;DHT22;44322;52.968;5.816;2022-09-28T07:09:12;8.70;99.90
58529;DHT22;44322;52.968;5.816;2022-09-28T07:12:01;8.70;99.90
58529;DHT22;44322;52.968;5.816;2022-09-28T07:14:38;8.80;99.90
58529;DHT22;44322;52.968;5.816;2022-09-28T07:17:04;8.80;99.90
58529;DHT22;44322;52.968;5.816;2022-09-28T07:19:33;8.80;99.90
58529;DHT22;44322;52.968;5.816;2022-09-28T07:22:01;8.80;99.90
58529;DHT22;44322;52.968;5.816;2022-09-28T07:24:28;8.90;99.90
58529;DHT22;44322;52.968;5.816;2022-09-28T07:27:17;8.90;99.90
58529;DHT22;44322;52.968;5.816;2022-09-28T07:30:05;9.00;99.90
58529;DHT22;44322;52.968;5.816;2022-09-28T07:32:55;9.10;99.90
58529;DHT22;44322;52.968;5.816;2022-09-28T07:35:49;9.40;99.90
58529;DHT22;44322;52.968;5.816;2022-09-28T07:38:17;9.90;99.90
58529;DHT22;44322;52.968;5.816;2022-09-28T07:40:43;10.10;99.90
58529;DHT22;44322;52.968;5.816;2022-09-28T07:43:28;10.10;99.90
58529;DHT22;44322;52.968;5.816;2022-09-28T07:45:54;10.00;99.90
58529;DHT22;44322;52.968;5.816;2022-09-28T07:48:21;10.00;99.90
58529;DHT22;44322;52.968;5.816;2022-09-28T07:50:57;10.00;99.90
58529;DHT22;44322;52.968;5.816;2022-09-28T07:53:38;9.90;99.90
58529;DHT22;44322;52.968;5.816;2022-09-28T07:56:24;9.90;99.90
58529;DHT22;44322;52.968;5.816;2022-09-28T07:58:55;9.90;99.90
58529;DHT22;44322;52.968;5.816;2022-09-28T08:01:39;10.00;99.90
58529;DHT22;44322;52.968;5.816;2022-09-28T08:04:08;10.00;99.90
58529;DHT22;44322;52.968;5.816;2022-09-28T08:06:35;10.00;99.90
58529;DHT22;44322;52.968;5.816;2022-09-28T08:09:03;10.00;99.90
58529;DHT22;44322;52.968;5.816;2022-09-28T08:11:48;10.10;99.90
58529;DHT22;44322;52.968;5.816;2022-09-28T08:14:29;10.10;99.90
58529;DHT22;44322;52.968;5.816;2022-09-28T08:17:09;10.20;99.90
58529;DHT22;44322;52.968;5.816;2022-09-28T08:19:50;10.20;99.90
58529;DHT22;44322;52.968;5.816;2022-09-28T08:22:34;10.30;99.90
58529;DHT22;44322;52.968;5.816;2022-09-28T08:25:02;10.30;99.90
58529;DHT22;44322;52.968;5.816;2022-09-28T08:27:28;10.40;99.90
58529;DHT22;44322;52.968;5.816;2022-09-28T08:29:54;10.50;99.90
58529;DHT22;44322;52.968;5.816;2022-09-28T08:32:47;10.50;99.90
58529;DHT22;44322;52.968;5.816;2022-09-28T08:35:25;10.60;99.90
58529;DHT22;44322;52.968;5.816;2022-09-28T08:38:17;10.70;99.90
58529;DHT22;44322;52.968;5.816;2022-09-28T08:41:18;10.80;99.90
58529;DHT22;44322;52.968;5.816;2022-09-28T08:44:18;10.80;99.90
58529;DHT22;44322;52.968;5.816;2022-09-28T08:47:09;11.00;99.90
58529;DHT22;44322;52.968;5.816;2022-09-28T08:50:24;11.10;99.90
58529;DHT22;44322;52.968;5.816;2022-09-28T08:56:41;12.50;99.90
58529;DHT22;44322;52.968;5.816;2022-09-28T08:59:28;12.60;99.90
58529;DHT22;44322;52.968;5.816;2022-09-28T09:02:18;13.00;99.90
58529;DHT22;44322;52.968;5.816;2022-09-28T09:04:46;13.70;99.90
58529;DHT22;44322;52.968;5.816;2022-09-28T09:18:37;14.70;99.90
58529;DHT22;44322;52.968;5.816;2022-09-28T09:21:42;14.40;99.90
58529;DHT22;44322;52.968;5.816;2022-09-28T09:40:41;15.80;99.90
58529;DHT22;44322;52.968;5.816;2022-09-28T09:43:27;16.00;99.90
58529;DHT22;44322;52.968;5.816;2022-09-28T09:46:58;15.80;99.90
58529;DHT22;44322;52.968;5.816;2022-09-28T09:52:22;14.90;99.90
58529;DHT22;44322;52.968;5.816;2022-09-28T09:55:14;14.60;99.90
58529;DHT22;44322;52.968;5.816;2022-09-28T09:58:30;14.30;99.90
58529;DHT22;44322;52.968;5.816;2022-09-28T10:01:22;14.00;99.90
58529;DHT22;44322;52.968;5.816;2022-09-28T10:04:30;13.90;99.90
58529;DHT22;44322;52.968;5.816;2022-09-28T10:07:05;14.10;99.90
58529;DHT22;44322;52.968;5.816;2022-09-28T10:09:40;14.30;99.90
58529;DHT22;44322;52.968;5.816;2022-09-28T10:12:30;14.60;99.90
58529;DHT22;44322;52.968;5.816;2022-09-28T10:15:08;14.90;99.90
58529;DHT22;44322;52.968;5.816;2022-09-28T10:17:48;15.20;99.90
58529;DHT22;44322;52.968;5.816;2022-09-28T10:20:37;15.60;99.90
58529;DHT22;44322;52.968;5.816;2022-09-28T10:23:29;15.80;99.90
58529;DHT22;44322;52.968;5.816;2022-09-28T10:26:21;16.00;99.90
58529;DHT22;44322;52.968;5.816;2022-09-28T10:31:55;15.80;99.90
58529;DHT22;44322;52.968;5.816;2022-09-28T10:34:30;15.60;99.90
58529;DHT22;44322;52.968;5.816;2022-09-28T10:37:04;15.40;99.90
58529;DHT22;44322;52.968;5.816;2022-09-28T10:39:53;15.20;99.90
58529;DHT22;44322;52.968;5.816;2022-09-28T10:42:31;15.10;99.90
58529;DHT22;44322;52.968;5.816;2022-09-28T10:45:14;15.20;99.90
58529;DHT22;44322;52.968;5.816;2022-09-28T10:47:53;15.50;99.90
58529;DHT22;44322;52.968;5.816;2022-09-28T10:50:23;15.90;99.90
58529;DHT22;44322;52.968;5.816;2022-09-28T10:53:19;16.20;99.90
58529;DHT22;44322;52.968;5.816;2022-09-28T10:56:19;16.60;99.90
58529;DHT22;44322;52.968;5.816;2022-09-28T10:58:48;16.80;99.90
58529;DHT22;44322;52.968;5.816;2022-09-28T11:01:24;16.80;99.90
58529;DHT22;44322;52.968;5.816;2022-09-28T11:03:57;16.80;99.90
58529;DHT22;44322;52.968;5.816;2022-09-28T11:06:27;16.70;99.90
58529;DHT22;44322;52.968;5.816;2022-09-28T11:08:57;16.50;99.90
58529;DHT22;44322;52.968;5.816;2022-09-28T11:11:25;16.30;99.90
58529;DHT22;44322;52.968;5.816;2022-09-28T11:14:00;16.20;99.90
58529;DHT22;44322;52.968;5.816;2022-09-28T11:16:34;16.10;99.90
58529;DHT22;44322;52.968;5.816;2022-09-28T11:19:26;16.10;99.90
58529;DHT22;44322;52.968;5.816;2022-09-28T11:21:52;16.20;99.90
58529;DHT22;44322;52.968;5.816;2022-09-28T11:24:23;16.40;99.90
58529;DHT22;44322;52.968;5.816;2022-09-28T11:26:57;16.60;99.90
58529;DHT22;44322;52.968;5.816;2022-09-28T11:29:41;16.90;99.90
58529;DHT22;44322;52.968;5.816;2022-09-28T11:32:40;17.00;99.90
58529;DHT22;44322;52.968;5.816;2022-09-28T11:47:02;17.40;99.90
58529;DHT22;44322;52.968;5.816;2022-09-28T11:49:40;17.40;99.30
58529;DHT22;44322;52.968;5.816;2022-09-28T11:55:21;17.10;98.90
58529;DHT22;44322;52.968;5.816;2022-09-28T11:58:04;17.20;99.20
58529;DHT22;44322;52.968;5.816;2022-09-28T12:00:37;17.30;99.80
58529;DHT22;44322;52.968;5.816;2022-09-28T12:03:21;17.60;99.80
58529;DHT22;44322;52.968;5.816;2022-09-28T12:05:59;17.60;99.80
58529;DHT22;44322;52.968;5.816;2022-09-28T12:08:29;17.50;99.50
58529;DHT22;44322;52.968;5.816;2022-09-28T12:11:24;17.50;99.90
58529;DHT22;44322;52.968;5.816;2022-09-28T12:14:19;17.60;99.50
58529;DHT22;44322;52.968;5.816;2022-09-28T12:17:17;17.80;99.10
58529;DHT22;44322;52.968;5.816;2022-09-28T12:20:45;17.90;99.60
58529;DHT22;44322;52.968;5.816;2022-09-28T12:25:24;17.50;96.60
58529;DHT22;44322;52.968;5.816;2022-09-28T12:28:01;17.10;98.30
58529;DHT22;44322;52.968;5.816;2022-09-28T12:30:35;16.80;99.50
58529;DHT22;44322;52.968;5.816;2022-09-28T12:33:14;16.50;99.90
58529;DHT22;44322;52.968;5.816;2022-09-28T12:38:37;16.20;99.90
58529;DHT22;44322;52.968;5.816;2022-09-28T12:41:44;16.00;99.90
58529;DHT22;44322;52.968;5.816;2022-09-28T12:44:39;15.90;99.90
58529;DHT22;44322;52.968;5.816;2022-09-28T12:55:21;15.40;99.90
58529;DHT22;44322;52.968;5.816;2022-09-28T13:00:17;15.90;99.90
58529;DHT22;44322;52.968;5.816;2022-09-28T13:03:03;16.20;99.90
58529;DHT22;44322;52.968;5.816;2022-09-28T13:11:22;17.30;99.50
58529;DHT22;44322;52.968;5.816;2022-09-28T13:24:11;16.90;99.90
58529;DHT22;44322;52.968;5.816;2022-09-28T13:26:42;16.60;99.90
58529;DHT22;44322;52.968;5.816;2022-09-28T13:29:12;16.20;99.90
58529;DHT22;44322;52.968;5.816;2022-09-28T13:31:49;15.90;99.90
58529;DHT22;44322;52.968;5.816;2022-09-28T13:34:20;15.70;99.90
58529;DHT22;44322;52.968;5.816;2022-09-28T13:37:07;15.40;99.90
58529;DHT22;44322;52.968;5.816;2022-09-28T13:39:37;15.20;99.90
58529;DHT22;44322;52.968;5.816;2022-09-28T13:42:05;14.90;99.90
58529;DHT22;44322;52.968;5.816;2022-09-28T13:47:43;14.30;99.90
58529;DHT22;44322;52.968;5.816;2022-09-28T13:52:51;13.80;99.90
58529;DHT22;44322;52.968;5.816;2022-09-28T13:55:34;13.60;99.90
58529;DHT22;44322;52.968;5.816;2022-09-28T13:58:23;13.40;99.90
58529;DHT22;44322;52.968;5.816;2022-09-28T14:00:56;13.30;99.90
58529;DHT22;44322;52.968;5.816;2022-09-28T14:06:34;13.00;99.90
58529;DHT22;44322;52.968;5.816;2022-09-28T14:09:40;12.80;99.90
58529;DHT22;44322;52.968;5.816;2022-09-28T14:12:42;12.60;99.90
58529;DHT22;44322;52.968;5.816;2022-09-28T14:20:47;12.30;99.90
58529;DHT22;44322;52.968;5.816;2022-09-28T14:23:57;12.30;99.90
58529;DHT22;44322;52.968;5.816;2022-09-28T14:31:55;12.60;99.90
58529;DHT22;44322;52.968;5.816;2022-09-28T14:36:56;13.00;99.90
58529;DHT22;44322;52.968;5.816;2022-09-28T14:39:43;13.20;99.90
58529;DHT22;44322;52.968;5.816;2022-09-28T14:42:28;13.50;99.90
58529;DHT22;44322;52.968;5.816;2022-09-28T14:47:40;13.80;99.90
58529;DHT22;44322;52.968;5.816;2022-09-28T14:52:49;14.00;99.90
58529;DHT22;44322;52.968;5.816;2022-09-28T14:55:19;14.10;99.90
58529;DHT22;44322;52.968;5.816;2022-09-28T14:57:54;14.10;99.90
58529;DHT22;44322;52.968;5.816;2022-09-28T15:00:23;14.10;99.90
58529;DHT22;44322;52.968;5.816;2022-09-28T15:02:53;14.10;99.90
58529;DHT22;44322;52.968;5.816;2022-09-28T15:05:27;14.10;99.90
58529;DHT22;44322;52.968;5.816;2022-09-28T15:07:54;14.00;99.90
58529;DHT22;44322;52.968;5.816;2022-09-28T15:12:49;14.00;99.90
58529;DHT22;44322;52.968;5.816;2022-09-28T15:15:30;13.90;99.90
58529;DHT22;44322;52.968;5.816;2022-09-28T15:18:22;14.00;99.90
58529;DHT22;44322;52.968;5.816;2022-09-28T15:20:56;13.90;99.90
58529;DHT22;44322;52.968;5.816;2022-09-28T15:23:40;13.90;99.90
58529;DHT22;44322;52.968;5.816;2022-09-28T15:26:28;13.90;99.90
58529;DHT22;44322;52.968;5.816;2022-09-28T15:28:54;13.90;99.90
58529;DHT22;44322;52.968;5.816;2022-09-28T15:31:23;13.90;99.90
58529;DHT22;44322;52.968;5.816;2022-09-28T15:33:50;13.90;99.90
58529;DHT22;44322;52.968;5.816;2022-09-28T15:36:42;13.90;99.90
58529;DHT22;44322;52.968;5.816;2022-09-28T15:39:29;13.80;99.90
58529;DHT22;44322;52.968;5.816;2022-09-28T15:41:56;13.80;99.90
58529;DHT22;44322;52.968;5.816;2022-09-28T15:44:33;13.80;99.90
58529;DHT22;44322;52.968;5.816;2022-09-28T15:47:09;13.80;99.90
58529;DHT22;44322;52.968;5.816;2022-09-28T15:53:05;13.80;99.90
58529;DHT22;44322;52.968;5.816;2022-09-28T15:55:36;13.70;99.90
58529;DHT22;44322;52.968;5.816;2022-09-28T16:00:43;13.60;99.90
58529;DHT22;44322;52.968;5.816;2022-09-28T16:05:40;13.60;99.90
58529;DHT22;44322;52.968;5.816;2022-09-28T16:08:17;13.60;99.90
58529;DHT22;44322;52.968;5.816;2022-09-28T16:13:32;13.60;99.90
58529;DHT22;44322;52.968;5.816;2022-09-28T16:15:59;13.50;99.90
58529;DHT22;44322;52.968;5.816;2022-09-28T16:18:27;13.50;99.90
58529;DHT22;44322;52.968;5.816;2022-09-28T16:21:30;13.50;99.90
58529;DHT22;44322;52.968;5.816;2022-09-28T16:24:02;13.40;99.90
58529;DHT22;44322;52.968;5.816;2022-09-28T16:26:32;13.30;99.90
58529;DHT22;44322;52.968;5.816;2022-09-28T16:28:59;13.20;99.90
58529;DHT22;44322;52.968;5.816;2022-09-28T16:31:31;13.20;99.90
58529;DHT22;44322;52.968;5.816;2022-09-28T16:34:28;13.10;99.90
58529;DHT22;44322;52.968;5.816;2022-09-28T16:36:55;13.10;99.90
58529;DHT22;44322;52.968;5.816;2022-09-28T16:39:21;13.00;99.90
58529;DHT22;44322;52.968;5.816;2022-09-28T16:41:58;13.00;99.90
58529;DHT22;44322;52.968;5.816;2022-09-28T16:44:25;12.90;99.90
58529;DHT22;44322;52.968;5.816;2022-09-28T16:46:53;12.90;99.90
58529;DHT22;44322;52.968;5.816;2022-09-28T16:49:22;12.90;99.90
58529;DHT22;44322;52.968;5.816;2022-09-28T16:51:50;12.80;99.90
58529;DHT22;44322;52.968;5.816;2022-09-28T16:54:19;12.80;99.90
58529;DHT22;44322;52.968;5.816;2022-09-28T16:57:05;12.80;99.90
58529;DHT22;44322;52.968;5.816;2022-09-28T16:59:33;12.70;99.90
58529;DHT22;44322;52.968;5.816;2022-09-28T17:01:59;12.70;99.90
58529;DHT22;44322;52.968;5.816;2022-09-28T17:04:25;12.70;99.90
58529;DHT22;44322;52.968;5.816;2022-09-28T17:06:52;12.60;99.90
58529;DHT22;44322;52.968;5.816;2022-09-28T17:09:23;12.60;99.90
58529;DHT22;44322;52.968;5.816;2022-09-28T17:11:49;12.50;99.90
58529;DHT22;44322;52.968;5.816;2022-09-28T17:14:21;12.50;99.90
58529;DHT22;44322;52.968;5.816;2022-09-28T17:16:49;12.40;99.90
58529;DHT22;44322;52.968;5.816;2022-09-28T17:19:25;12.40;99.90
58529;DHT22;44322;52.968;5.816;2022-09-28T17:21:56;12.30;99.90
58529;DHT22;44322;52.968;5.816;2022-09-28T17:24:24;12.20;99.90
58529;DHT22;44322;52.968;5.816;2022-09-28T17:26:51;12.20;99.90
58529;DHT22;44322;52.968;5.816;2022-09-28T17:29:18;12.10;99.90
58529;DHT22;44322;52.968;5.816;2022-09-28T17:31:45;12.00;99.90
58529;DHT22;44322;52.968;5.816;2022-09-28T17:34:12;12.00;99.90
58529;DHT22;44322;52.968;5.816;2022-09-28T17:36:46;11.90;99.90
58529;DHT22;44322;52.968;5.816;2022-09-28T17:39:14;11.90;99.90
58529;DHT22;44322;52.968;5.816;2022-09-28T17:41:40;11.80;99.90
58529;DHT22;44322;52.968;5.816;2022-09-28T17:44:07;11.70;99.90
58529;DHT22;44322;52.968;5.816;2022-09-28T17:46:37;11.70;99.90
58529;DHT22;44322;52.968;5.816;2022-09-28T17:49:06;11.60;99.90
58529;DHT22;44322;52.968;5.816;2022-09-28T17:51:35;11.60;99.90
58529;DHT22;44322;52.968;5.816;2022-09-28T17:54:05;11.50;99.90
58529;DHT22;44322;52.968;5.816;2022-09-28T17:56:33;11.50;99.90
58529;DHT22;44322;52.968;5.816;2022-09-28T17:59:05;11.40;99.90
58529;DHT22;44322;52.968;5.816;2022-09-28T18:01:36;11.40;99.90
58529;DHT22;44322;52.968;5.816;2022-09-28T18:04:04;11.30;99.90
58529;DHT22;44322;52.968;5.816;2022-09-28T18:06:32;11.30;99.90
58529;DHT22;44322;52.968;5.816;2022-09-28T18:08:58;11.20;99.90
58529;DHT22;44322;52.968;5.816;2022-09-28T18:11:26;11.20;99.90
58529;DHT22;44322;52.968;5.816;2022-09-28T18:13:52;11.10;99.90
58529;DHT22;44322;52.968;5.816;2022-09-28T18:25:42;10.90;99.90
58529;DHT22;44322;52.968;5.816;2022-09-28T18:28:10;10.80;99.90
58529;DHT22;44322;52.968;5.816;2022-09-28T18:30:42;10.80;99.90
58529;DHT22;44322;52.968;5.816;2022-09-28T18:33:10;10.80;99.90
58529;DHT22;44322;52.968;5.816;2022-09-28T18:35:55;10.70;99.90
58529;DHT22;44322;52.968;5.816;2022-09-28T18:38:24;10.70;99.90
58529;DHT22;44322;52.968;5.816;2022-09-28T18:40:50;10.70;99.90
58529;DHT22;44322;52.968;5.816;2022-09-28T18:43:29;10.60;99.90
58529;DHT22;44322;52.968;5.816;2022-09-28T18:45:55;10.60;99.90
58529;DHT22;44322;52.968;5.816;2022-09-28T18:48:21;10.50;99.90
58529;DHT22;44322;52.968;5.816;2022-09-28T18:50:49;10.50;99.90
58529;DHT22;44322;52.968;5.816;2022-09-28T18:53:15;10.50;99.90
58529;DHT22;44322;52.968;5.816;2022-09-28T18:55:42;10.40;99.90
58529;DHT22;44322;52.968;5.816;2022-09-28T18:58:10;10.40;99.90
58529;DHT22;44322;52.968;5.816;2022-09-28T19:00:38;10.40;99.90
58529;DHT22;44322;52.968;5.816;2022-09-28T19:03:05;10.30;99.90
58529;DHT22;44322;52.968;5.816;2022-09-28T19:05:31;10.30;99.90
58529;DHT22;44322;52.968;5.816;2022-09-28T19:07:58;10.20;99.90
58529;DHT22;44322;52.968;5.816;2022-09-28T19:10:24;10.20;99.90
58529;DHT22;44322;52.968;5.816;2022-09-28T19:12:50;10.10;99.90
58529;DHT22;44322;52.968;5.816;2022-09-28T19:15:18;10.10;99.90
58529;DHT22;44322;52.968;5.816;2022-09-28T19:17:45;10.00;99.90
58529;DHT22;44322;52.968;5.816;2022-09-28T19:20:12;10.10;99.90
58529;DHT22;44322;52.968;5.816;2022-09-28T19:22:44;10.00;99.90
58529;DHT22;44322;52.968;5.816;2022-09-28T19:25:15;10.00;99.90
58529;DHT22;44322;52.968;5.816;2022-09-28T19:27:41;10.00;99.90
58529;DHT22;44322;52.968;5.816;2022-09-28T19:30:07;9.90;99.90
58529;DHT22;44322;52.968;5.816;2022-09-28T19:32:33;9.90;99.90
58529;DHT22;44322;52.968;5.816;2022-09-28T19:34:59;9.90;99.90
58529;DHT22;44322;52.968;5.816;2022-09-28T19:37:25;9.90;99.90
58529;DHT22;44322;52.968;5.816;2022-09-28T19:39:51;9.90;99.90
58529;DHT22;44322;52.968;5.816;2022-09-28T19:42:16;9.80;99.90